Time;durP1;ratioP1;P1;durP2;ratioP2;P2;SDS_P1;SDS_P2;PMS_P1;PMS_P2;Temp;Humidity;BMP_temperature;BMP_pressure;BME280_temperature;BME280_humidity;BME280_pressure;Samples;Min_cycle;Max_cycle;Signal;HPM_P1;HPM_P2
2023/07/17 00:01:31;;;;;;;2.65;1.60;;;22.50;99.90;;;;;;5013550;28;20022;-40
2023/07/17 00:03:57;;;;;;;2.80;1.60;;;22.50;99.90;;;;;;5013037;28;20109;-40
2023/07/17 00:06:22;;;;;;;4.88;1.65;;;22.50;99.90;;;;;;5012965;28;20037;-38
2023/07/17 00:08:48;;;;;;;2.97;1.75;;;22.50;99.90;;;;;;5012852;28;20072;-40
2023/07/17 00:11:13;;;;;;;2.78;1.30;;;22.50;99.90;;;;;;5012862;28;20033;-42
2023/07/17 00:13:39;;;;;;;3.20;1.77;;;22.50;99.90;;;;;;5012904;28;20040;-40
2023/07/17 00:16:05;;;;;;;2.38;1.48;;;22.50;99.90;;;;;;5012812;28;20030;-40
2023/07/17 00:18:34;;;;;;;2.00;1.48;;;22.50;99.90;;;;;;5012655;28;20034;-39
2023/07/17 00:21:03;;;;;;;2.88;1.60;;;22.50;99.90;;;;;;5012623;28;20018;-40
2023/07/17 00:23:29;;;;;;;4.10;1.50;;;22.50;99.90;;;;;;5012842;28;20393;-40
2023/07/17 00:25:54;;;;;;;2.70;1.55;;;22.50;99.90;;;;;;5012069;28;20040;-39
2023/07/17 00:28:20;;;;;;;4.20;1.73;;;22.40;99.90;;;;;;4994913;28;20036;-40
2023/07/17 00:30:47;;;;;;;3.15;1.48;;;22.50;99.90;;;;;;5012334;28;20061;-41
2023/07/17 00:33:13;;;;;;;1.90;1.30;;;22.50;99.90;;;;;;5012594;28;20500;-38
2023/07/17 00:35:38;;;;;;;2.83;1.60;;;22.50;99.90;;;;;;5012579;28;20022;-39
2023/07/17 00:38:04;;;;;;;2.13;1.50;;;22.50;99.90;;;;;;5012404;28;20546;-40
2023/07/17 00:40:30;;;;;;;3.88;1.40;;;22.40;99.90;;;;;;4994751;28;20030;-39
2023/07/17 00:42:59;;;;;;;2.25;1.42;;;22.50;99.90;;;;;;5012451;28;20108;-40
2023/07/17 00:45:26;;;;;;;2.90;1.70;;;22.50;99.90;;;;;;5012291;28;20029;-39
2023/07/17 00:47:52;;;;;;;2.63;1.63;;;22.50;99.90;;;;;;5012440;28;20434;-41
2023/07/17 00:50:18;;;;;;;3.38;1.70;;;22.40;99.90;;;;;;5012328;28;20113;-39
2023/07/17 00:52:44;;;;;;;3.03;1.48;;;22.40;99.90;;;;;;5012323;28;20096;-43
2023/07/17 00:55:12;;;;;;;3.40;1.70;;;22.50;99.90;;;;;;5012219;28;20544;-39
2023/07/17 00:57:39;;;;;;;1.30;1.10;;;22.50;99.90;;;;;;5012052;28;20034;-40
2023/07/17 01:00:08;;;;;;;2.13;1.40;;;22.40;99.90;;;;;;5011959;28;20344;-40
2023/07/17 01:02:33;;;;;;;3.20;1.70;;;22.50;99.90;;;;;;5012085;28;20112;-39
2023/07/17 01:04:59;;;;;;;3.25;1.60;;;22.40;99.90;;;;;;5012054;28;20113;-41
2023/07/17 01:07:25;;;;;;;3.03;1.60;;;22.40;99.90;;;;;;5011921;28;20032;-39
2023/07/17 01:09:51;;;;;;;2.70;1.55;;;22.40;99.90;;;;;;5011706;28;20026;-40
2023/07/17 01:12:17;;;;;;;2.38;1.40;;;22.40;99.90;;;;;;5011672;28;20057;-40
2023/07/17 01:14:43;;;;;;;3.08;1.30;;;22.40;99.90;;;;;;5011890;28;20053;-42
2023/07/17 01:17:08;;;;;;;2.65;1.73;;;22.40;99.90;;;;;;5011773;28;20528;-40
2023/07/17 01:19:34;;;;;;;2.85;1.52;;;22.40;99.90;;;;;;5012113;28;20083;-42
2023/07/17 01:22:04;;;;;;;3.78;1.90;;;22.40;99.90;;;;;;5011763;28;20029;-41
2023/07/17 01:24:29;;;;;;;3.53;1.27;;;22.40;99.90;;;;;;5011704;28;20030;-40
2023/07/17 01:26:55;;;;;;;3.85;1.58;;;22.40;99.90;;;;;;5011563;28;20084;-41
2023/07/17 01:29:21;;;;;;;3.15;1.70;;;22.40;99.90;;;;;;5011427;28;20129;-40
2023/07/17 01:31:46;;;;;;;2.60;1.45;;;22.40;99.90;;;;;;5011916;28;20068;-40
2023/07/17 01:34:12;;;;;;;6.22;1.90;;;22.40;99.90;;;;;;5011764;28;20254;-39
2023/07/17 01:36:38;;;;;;;2.55;1.60;;;22.40;99.90;;;;;;5010875;28;20061;-39
2023/07/17 01:39:03;;;;;;;2.83;1.40;;;22.40;99.90;;;;;;5011111;28;20539;-39
2023/07/17 01:41:29;;;;;;;2.83;1.30;;;22.40;99.90;;;;;;5011448;28;20037;-41
2023/07/17 01:43:54;;;;;;;2.15;1.50;;;22.40;99.90;;;;;;5011519;28;20062;-40
2023/07/17 01:46:20;;;;;;;2.58;1.50;;;22.40;99.90;;;;;;5011489;28;20104;-40
2023/07/17 01:48:46;;;;;;;2.10;1.52;;;22.40;99.90;;;;;;5011304;28;20026;-41
2023/07/17 01:51:12;;;;;;;2.78;1.70;;;22.40;99.90;;;;;;5011762;28;20083;-39
2023/07/17 01:53:37;;;;;;;2.13;1.48;;;22.40;99.90;;;;;;5011371;28;20101;-39
2023/07/17 01:56:03;;;;;;;3.17;1.50;;;22.40;99.90;;;;;;5011337;28;20120;-43
2023/07/17 01:58:29;;;;;;;2.47;1.40;;;22.40;99.90;;;;;;5011341;28;20056;-38
2023/07/17 02:00:55;;;;;;;2.85;1.35;;;22.40;99.90;;;;;;5011230;28;20022;-40
2023/07/17 02:03:22;;;;;;;2.78;1.77;;;22.40;99.90;;;;;;5011403;28;20053;-38
2023/07/17 02:05:50;;;;;;;3.28;1.45;;;22.40;99.90;;;;;;5011333;28;20080;-41
2023/07/17 02:08:16;;;;;;;2.70;1.55;;;22.40;99.90;;;;;;5011159;28;20431;-42
2023/07/17 02:10:47;;;;;;;3.50;1.45;;;22.40;99.90;;;;;;5010970;28;20025;-40
2023/07/17 02:13:12;;;;;;;4.50;1.60;;;22.40;99.90;;;;;;5011239;28;20026;-44
2023/07/17 02:15:38;;;;;;;3.38;1.70;;;22.40;99.90;;;;;;5011243;28;20370;-43
2023/07/17 02:18:04;;;;;;;3.05;1.60;;;22.40;99.90;;;;;;5011018;28;20065;-40
2023/07/17 02:20:29;;;;;;;3.28;1.70;;;22.30;99.90;;;;;;5011322;28;20504;-41
2023/07/17 02:22:55;;;;;;;3.58;1.60;;;22.30;99.90;;;;;;5011136;28;20472;-43
2023/07/17 02:25:21;;;;;;;1.80;1.38;;;22.30;99.90;;;;;;5011283;28;20038;-41
2023/07/17 02:27:46;;;;;;;3.35;1.70;;;22.40;99.90;;;;;;5011013;28;20493;-39
2023/07/17 02:30:12;;;;;;;4.28;1.80;;;22.30;99.90;;;;;;5011158;28;20097;-39
2023/07/17 02:32:38;;;;;;;2.75;1.50;;;22.30;99.90;;;;;;5011074;28;20485;-37
2023/07/17 02:35:04;;;;;;;6.25;1.65;;;22.40;99.90;;;;;;5011097;28;20030;-40
2023/07/17 02:37:30;;;;;;;2.80;1.50;;;22.30;99.90;;;;;;5010870;28;20030;-39
2023/07/17 02:39:56;;;;;;;2.90;1.35;;;22.30;99.90;;;;;;5010669;28;20029;-39
2023/07/17 02:42:22;;;;;;;1.83;1.33;;;22.30;99.90;;;;;;5010983;28;20116;-40
2023/07/17 02:44:49;;;;;;;3.97;1.63;;;22.30;99.90;;;;;;5010898;28;20109;-40
2023/07/17 02:47:15;;;;;;;2.13;1.70;;;22.30;99.90;;;;;;5010802;28;20029;-41
2023/07/17 02:49:42;;;;;;;2.47;1.55;;;22.30;99.90;;;;;;5013467;28;20096;-40
2023/07/17 02:52:08;;;;;;;6.32;1.52;;;22.30;99.90;;;;;;5014462;28;20386;-40
2023/07/17 02:54:36;;;;;;;1.85;1.50;;;22.30;99.90;;;;;;5014874;28;20128;-39
2023/07/17 02:57:04;;;;;;;3.28;1.40;;;22.30;99.90;;;;;;5014442;28;20417;-40
2023/07/17 02:59:30;;;;;;;2.90;1.45;;;22.30;99.90;;;;;;5014094;28;20083;-39
2023/07/17 03:01:55;;;;;;;3.03;1.50;;;22.30;99.90;;;;;;5014354;28;20026;-40
2023/07/17 03:04:21;;;;;;;2.47;1.52;;;22.30;99.90;;;;;;5014324;28;20153;-39
2023/07/17 03:06:48;;;;;;;2.33;1.58;;;22.30;99.90;;;;;;5014545;28;20519;-40
2023/07/17 03:09:14;;;;;;;2.55;1.58;;;22.30;99.90;;;;;;5013935;28;20366;-41
2023/07/17 03:11:39;;;;;;;2.80;1.50;;;22.30;99.90;;;;;;5014289;28;20022;-41
2023/07/17 03:14:05;;;;;;;2.50;1.70;;;22.30;99.90;;;;;;5014041;28;20497;-40
2023/07/17 03:16:30;;;;;;;2.47;1.23;;;22.30;99.90;;;;;;5014048;28;20025;-43
2023/07/17 03:18:57;;;;;;;2.33;1.50;;;22.30;99.90;;;;;;5013722;28;20034;-39
2023/07/17 03:21:22;;;;;;;3.20;1.38;;;22.30;99.90;;;;;;5013905;28;20432;-39
2023/07/17 03:23:48;;;;;;;4.15;1.75;;;22.30;99.90;;;;;;5013861;28;20073;-40
2023/07/17 03:26:14;;;;;;;1.70;1.30;;;22.30;99.90;;;;;;5013903;28;20484;-41
2023/07/17 03:28:39;;;;;;;2.00;1.35;;;22.30;99.90;;;;;;5013691;28;20042;-40
2023/07/17 03:31:07;;;;;;;2.90;1.27;;;22.30;99.90;;;;;;5013665;28;20026;-42
2023/07/17 03:33:33;;;;;;;3.88;1.60;;;22.30;99.90;;;;;;5013708;28;20093;-40
2023/07/17 03:35:58;;;;;;;3.55;1.50;;;22.30;99.90;;;;;;5013594;28;20026;-40
2023/07/17 03:38:24;;;;;;;2.55;1.45;;;22.30;99.90;;;;;;5013972;28;20389;-40
2023/07/17 03:40:50;;;;;;;2.38;1.60;;;22.20;99.90;;;;;;5013460;28;20037;-40
2023/07/17 03:43:15;;;;;;;2.92;1.35;;;22.30;99.90;;;;;;5013661;28;20030;-39
2023/07/17 03:45:41;;;;;;;5.22;1.60;;;22.30;99.90;;;;;;5013537;28;20504;-38
2023/07/17 03:48:07;;;;;;;4.65;1.58;;;22.30;99.90;;;;;;4995837;28;20108;-40
2023/07/17 03:50:32;;;;;;;3.50;1.77;;;22.30;99.90;;;;;;5013191;28;20030;-40
2023/07/17 03:52:58;;;;;;;2.45;1.60;;;22.30;99.90;;;;;;5013290;28;20029;-39
2023/07/17 03:55:24;;;;;;;4.50;1.58;;;22.20;99.90;;;;;;5013329;28;20025;-39
2023/07/17 03:57:49;;;;;;;2.50;1.58;;;22.30;99.90;;;;;;5013183;28;20025;-39
2023/07/17 04:00:15;;;;;;;1.98;1.30;;;22.30;99.90;;;;;;5012193;28;20053;-39
2023/07/17 04:02:42;;;;;;;4.18;1.38;;;22.30;99.90;;;;;;5013167;28;20037;-41
2023/07/17 04:05:08;;;;;;;2.45;1.42;;;22.20;99.90;;;;;;5013076;28;20030;-38
2023/07/17 04:07:33;;;;;;;2.42;1.40;;;22.30;99.90;;;;;;5013084;28;20083;-39
2023/07/17 04:09:59;;;;;;;4.60;1.67;;;22.20;99.90;;;;;;5012876;28;20409;-41
2023/07/17 04:12:24;;;;;;;2.30;1.60;;;22.30;99.90;;;;;;5013060;28;20058;-43
2023/07/17 04:14:50;;;;;;;1.50;1.20;;;22.20;99.90;;;;;;4995363;28;20018;-37
2023/07/17 04:17:16;;;;;;;5.63;1.60;;;22.30;99.90;;;;;;5012723;28;20049;-37
2023/07/17 04:19:41;;;;;;;3.22;1.55;;;22.20;99.90;;;;;;5014254;28;20034;-39
2023/07/17 04:22:07;;;;;;;3.35;1.52;;;22.20;99.90;;;;;;5012804;28;20591;-39
2023/07/17 04:24:34;;;;;;;2.40;1.52;;;22.20;99.90;;;;;;5012801;28;20033;-38
2023/07/17 04:27:00;;;;;;;2.03;1.30;;;22.20;99.90;;;;;;5012700;28;20037;-38
2023/07/17 04:29:25;;;;;;;4.47;1.60;;;22.20;99.90;;;;;;5012463;28;20080;-38
2023/07/17 04:31:51;;;;;;;2.47;1.45;;;22.20;99.90;;;;;;5012745;28;20026;-38
2023/07/17 04:34:18;;;;;;;4.72;1.70;;;22.20;99.90;;;;;;5013019;28;20029;-41
2023/07/17 04:36:43;;;;;;;2.58;1.83;;;22.20;99.90;;;;;;5012538;28;20034;-42
2023/07/17 04:39:09;;;;;;;2.40;1.42;;;22.20;99.90;;;;;;5012319;28;20048;-40
2023/07/17 04:41:35;;;;;;;3.17;1.70;;;22.20;99.90;;;;;;5012478;28;20497;-40
2023/07/17 04:44:00;;;;;;;4.15;1.75;;;22.20;99.90;;;;;;5012403;28;20520;-40
2023/07/17 04:46:26;;;;;;;5.90;1.73;;;22.20;99.90;;;;;;5012324;28;20088;-39
2023/07/17 04:48:51;;;;;;;6.97;2.40;;;22.20;99.90;;;;;;5012075;28;20022;-43
2023/07/17 04:51:17;;;;;;;4.78;1.83;;;22.10;99.90;;;;;;5012126;28;20028;-47
2023/07/17 04:53:43;;;;;;;4.93;1.95;;;21.80;99.90;;;;;;5012590;28;20022;-43
2023/07/17 04:56:09;;;;;;;6.28;1.77;;;21.60;99.90;;;;;;5012144;28;20026;-43
2023/07/17 04:58:34;;;;;;;6.68;2.20;;;21.60;99.90;;;;;;5012068;28;20033;-45
2023/07/17 05:01:01;;;;;;;7.47;1.80;;;21.70;99.90;;;;;;5011957;28;20032;-44
2023/07/17 05:03:27;;;;;;;7.00;2.35;;;21.70;99.90;;;;;;5011944;28;20026;-43
2023/07/17 05:05:53;;;;;;;8.27;2.30;;;21.70;99.90;;;;;;5012006;28;20025;-45
2023/07/17 05:08:20;;;;;;;4.82;2.25;;;21.80;99.90;;;;;;5011899;28;20080;-48
2023/07/17 05:11:02;;;;;;;5.72;1.95;;;21.80;99.90;;;;;;5011706;28;20110;-43
2023/07/17 05:13:28;;;;;;;9.00;2.38;;;21.80;99.90;;;;;;5011867;28;20025;-46
2023/07/17 05:15:54;;;;;;;6.57;2.10;;;21.90;99.90;;;;;;5011888;28;20061;-42
2023/07/17 05:18:20;;;;;;;4.97;2.03;;;21.90;99.90;;;;;;5011625;28;20038;-42
2023/07/17 05:20:48;;;;;;;5.07;2.03;;;21.90;99.90;;;;;;5011575;28;20042;-43
2023/07/17 05:23:14;;;;;;;5.47;2.00;;;21.90;99.90;;;;;;5011745;28;20049;-45
2023/07/17 05:25:40;;;;;;;7.57;1.90;;;22.00;99.90;;;;;;5011803;28;20098;-47
2023/07/17 05:28:06;;;;;;;5.22;2.05;;;21.90;99.90;;;;;;5011567;28;20041;-44
2023/07/17 05:30:35;;;;;;;5.22;2.22;;;21.90;99.90;;;;;;5011952;28;20381;-42
2023/07/17 05:33:01;;;;;;;5.22;2.00;;;22.00;99.90;;;;;;5011615;28;20033;-42
2023/07/17 05:35:28;;;;;;;5.15;1.90;;;22.00;99.90;;;;;;5010574;28;20105;-45
2023/07/17 05:37:54;;;;;;;5.90;2.10;;;22.00;99.90;;;;;;5011550;28;20034;-43
2023/07/17 05:40:20;;;;;;;4.60;1.90;;;22.00;99.90;;;;;;5011393;28;20033;-45
2023/07/17 05:42:45;;;;;;;5.85;1.73;;;22.00;99.90;;;;;;5011598;28;20469;-45
2023/07/17 05:45:11;;;;;;;3.75;1.80;;;22.00;99.90;;;;;;5011400;28;20034;-44
2023/07/17 05:47:38;;;;;;;4.00;1.85;;;22.00;99.90;;;;;;5011613;28;20092;-43
2023/07/17 05:50:04;;;;;;;2.03;1.60;;;22.10;99.90;;;;;;5011351;28;20025;-45
2023/07/17 05:52:30;;;;;;;3.90;1.95;;;22.00;99.90;;;;;;5011523;28;20117;-41
2023/07/17 05:54:56;;;;;;;4.40;2.05;;;22.10;99.90;;;;;;5011438;28;20097;-41
2023/07/17 05:57:21;;;;;;;4.97;2.30;;;22.10;99.90;;;;;;5011308;28;20113;-42
2023/07/17 05:59:47;;;;;;;4.68;2.00;;;22.00;99.90;;;;;;5011104;28;20053;-45
2023/07/17 06:02:13;;;;;;;6.65;2.20;;;22.10;99.90;;;;;;5011372;28;20092;-43
2023/07/17 06:04:39;;;;;;;4.40;1.83;;;22.10;99.90;;;;;;5011251;28;20097;-45
2023/07/17 06:07:05;;;;;;;5.07;2.13;;;22.10;99.90;;;;;;5011237;28;20025;-42
2023/07/17 06:09:31;;;;;;;2.55;1.63;;;22.10;99.90;;;;;;5011079;28;20033;-43
2023/07/17 06:11:56;;;;;;;3.13;1.80;;;22.10;99.90;;;;;;5011300;28;20389;-42
2023/07/17 06:14:22;;;;;;;3.97;1.95;;;22.10;99.90;;;;;;5011234;28;20470;-40
2023/07/17 06:16:48;;;;;;;3.00;1.80;;;22.10;99.90;;;;;;5011781;28;20037;-43
2023/07/17 06:19:14;;;;;;;3.90;1.83;;;22.10;99.90;;;;;;5010977;28;20034;-43
2023/07/17 06:21:39;;;;;;;8.70;2.50;;;22.10;99.90;;;;;;5011310;28;20022;-40
2023/07/17 06:24:08;;;;;;;5.70;1.88;;;22.10;99.90;;;;;;5013151;28;20026;-42
2023/07/17 06:26:34;;;;;;;5.50;2.08;;;22.10;99.90;;;;;;5014956;28;20382;-39
2023/07/17 06:29:00;;;;;;;3.53;1.90;;;22.10;99.90;;;;;;5014647;28;20075;-41
2023/07/17 06:31:25;;;;;;;5.35;2.28;;;22.10;99.90;;;;;;5014934;28;20018;-40
2023/07/17 06:33:51;;;;;;;5.03;2.22;;;22.10;99.90;;;;;;5014737;28;20057;-42
2023/07/17 06:36:17;;;;;;;5.43;2.10;;;22.10;99.90;;;;;;5014830;28;20394;-44
2023/07/17 06:38:42;;;;;;;4.75;2.08;;;22.10;99.90;;;;;;5014600;28;20494;-40
2023/07/17 06:41:08;;;;;;;3.50;1.80;;;22.10;99.90;;;;;;5014680;28;20030;-40
2023/07/17 06:43:34;;;;;;;6.68;2.20;;;22.10;99.90;;;;;;5014569;28;20036;-42
2023/07/17 06:45:59;;;;;;;3.75;2.00;;;22.10;99.90;;;;;;5014688;28;20547;-43
2023/07/17 06:48:25;;;;;;;7.88;2.03;;;22.10;99.90;;;;;;5014578;28;20030;-42
2023/07/17 06:50:50;;;;;;;3.15;1.70;;;22.10;99.90;;;;;;5014696;28;20134;-44
2023/07/17 06:53:16;;;;;;;6.80;2.15;;;22.10;99.90;;;;;;5014591;28;20040;-44
2023/07/17 06:55:42;;;;;;;8.48;2.25;;;22.10;99.90;;;;;;5014569;28;20022;-43
2023/07/17 06:58:07;;;;;;;8.70;2.05;;;22.20;99.90;;;;;;5014279;28;20557;-40
2023/07/17 07:00:33;;;;;;;7.43;2.22;;;22.10;99.90;;;;;;5014217;28;20034;-42
2023/07/17 07:02:59;;;;;;;3.70;1.95;;;22.10;99.90;;;;;;5014353;28;20105;-40
2023/07/17 07:05:25;;;;;;;3.38;1.85;;;22.10;99.90;;;;;;4996782;28;20056;-42
2023/07/17 07:07:50;;;;;;;3.30;2.00;;;22.10;99.90;;;;;;5014106;28;20088;-41
2023/07/17 07:10:16;;;;;;;3.80;1.90;;;22.10;99.90;;;;;;5014440;28;20049;-42
2023/07/17 07:12:42;;;;;;;6.18;2.10;;;22.10;99.90;;;;;;5013991;28;20040;-42
2023/07/17 07:15:09;;;;;;;3.13;1.55;;;22.10;99.90;;;;;;5014162;28;20021;-42
2023/07/17 07:17:34;;;;;;;3.08;2.00;;;22.20;99.90;;;;;;5013992;28;20327;-39
2023/07/17 07:20:00;;;;;;;4.90;2.00;;;22.10;99.90;;;;;;5014474;28;20060;-41
2023/07/17 07:22:26;;;;;;;3.03;2.20;;;22.20;99.90;;;;;;5014896;28;20500;-40
2023/07/17 07:24:52;;;;;;;3.88;1.85;;;22.20;99.90;;;;;;5015114;28;20076;-41
2023/07/17 07:27:18;;;;;;;4.20;2.00;;;22.20;99.90;;;;;;5014337;28;20032;-42
2023/07/17 07:29:44;;;;;;;5.10;2.30;;;22.20;99.90;;;;;;5014401;28;20425;-41
2023/07/17 07:32:10;;;;;;;6.57;2.28;;;22.20;99.90;;;;;;5013787;28;20079;-41
2023/07/17 07:34:35;;;;;;;3.88;1.80;;;22.20;99.90;;;;;;5013692;28;20026;-42
2023/07/17 07:37:02;;;;;;;4.25;2.00;;;22.20;99.90;;;;;;5013758;28;20030;-44
2023/07/17 07:39:28;;;;;;;3.95;2.05;;;22.20;99.90;;;;;;5013365;28;20049;-42
2023/07/17 07:41:54;;;;;;;5.75;2.40;;;22.20;99.90;;;;;;5013586;28;20113;-41
2023/07/17 07:44:19;;;;;;;4.10;1.80;;;22.20;99.90;;;;;;5013620;28;20026;-40
2023/07/17 07:46:45;;;;;;;3.67;2.00;;;22.20;99.90;;;;;;5013412;28;20119;-39
2023/07/17 07:49:11;;;;;;;3.70;2.17;;;22.20;99.90;;;;;;5013253;28;20477;-39
2023/07/17 07:51:36;;;;;;;4.70;2.30;;;22.20;99.90;;;;;;5013642;28;20017;-44
2023/07/17 07:54:03;;;;;;;3.03;2.08;;;22.20;99.90;;;;;;5013526;28;20030;-41
2023/07/17 07:56:29;;;;;;;2.70;1.75;;;22.20;99.90;;;;;;5013344;28;20026;-42
2023/07/17 07:58:54;;;;;;;5.00;1.77;;;22.20;99.90;;;;;;5013079;28;20052;-42
2023/07/17 08:01:20;;;;;;;2.67;1.88;;;22.20;99.90;;;;;;5013250;28;20481;-43
2023/07/17 08:03:46;;;;;;;4.50;2.00;;;22.20;99.90;;;;;;5013281;28;20034;-44
2023/07/17 08:06:12;;;;;;;3.65;1.90;;;22.20;99.90;;;;;;5013313;28;20049;-44
2023/07/17 08:08:37;;;;;;;3.60;2.25;;;22.20;99.90;;;;;;5012977;28;20029;-42
2023/07/17 08:11:03;;;;;;;3.58;1.95;;;22.30;99.90;;;;;;5012760;28;20022;-42
2023/07/17 08:13:28;;;;;;;3.13;2.10;;;22.20;99.90;;;;;;5013194;28;20091;-41
2023/07/17 08:15:54;;;;;;;3.15;1.90;;;22.20;99.90;;;;;;5012973;28;20022;-43
2023/07/17 08:18:20;;;;;;;3.85;1.90;;;22.30;99.90;;;;;;5013135;28;20040;-42
2023/07/17 08:20:46;;;;;;;3.65;2.22;;;22.20;99.90;;;;;;5012639;28;20477;-43
2023/07/17 08:23:11;;;;;;;3.97;2.30;;;22.30;99.90;;;;;;5012841;28;20034;-42
2023/07/17 08:25:38;;;;;;;2.72;1.67;;;22.30;99.90;;;;;;5013208;28;20026;-43
2023/07/17 08:28:04;;;;;;;5.50;2.13;;;22.30;99.90;;;;;;5012751;28;20104;-43
2023/07/17 08:30:29;;;;;;;4.53;2.08;;;22.30;99.90;;;;;;5012592;28;20477;-41
2023/07/17 08:32:55;;;;;;;2.28;1.80;;;22.30;99.90;;;;;;5012747;28;20026;-43
2023/07/17 08:35:20;;;;;;;4.50;2.60;;;22.30;99.90;;;;;;5012605;28;20022;-42
2023/07/17 08:37:46;;;;;;;4.22;1.90;;;22.30;99.90;;;;;;5012483;28;20030;-40
2023/07/17 08:40:12;;;;;;;5.05;2.00;;;22.30;99.90;;;;;;4994717;28;20501;-44
2023/07/17 08:42:43;;;;;;;2.72;1.92;;;22.40;99.90;;;;;;5012499;28;20033;-43
2023/07/17 08:45:09;;;;;;;3.90;2.17;;;22.30;99.90;;;;;;5012442;28;20022;-42
2023/07/17 08:47:37;;;;;;;3.70;2.03;;;22.30;99.90;;;;;;5011793;28;20022;-42
2023/07/17 08:50:04;;;;;;;4.18;2.28;;;22.40;99.90;;;;;;5012135;28;20026;-42
2023/07/17 08:52:31;;;;;;;3.13;2.25;;;22.30;99.90;;;;;;5012370;28;20045;-45
2023/07/17 08:54:57;;;;;;;3.78;2.10;;;22.40;99.90;;;;;;5012173;28;20030;-43
2023/07/17 08:57:24;;;;;;;3.92;2.50;;;22.30;99.90;;;;;;5012178;28;20037;-42
2023/07/17 08:59:50;;;;;;;4.28;2.40;;;22.40;99.90;;;;;;5011977;28;20064;-47
2023/07/17 09:02:16;;;;;;;3.88;2.30;;;22.40;99.90;;;;;;5012164;28;20029;-44
2023/07/17 09:04:42;;;;;;;4.47;2.40;;;22.40;99.90;;;;;;5012150;28;20533;-42
2023/07/17 09:07:07;;;;;;;4.10;2.22;;;22.40;99.90;;;;;;5012063;28;20124;-46
2023/07/17 09:09:33;;;;;;;3.58;2.17;;;22.40;99.90;;;;;;5011730;28;20092;-43
2023/07/17 09:12:09;;;;;;;2.95;1.98;;;22.40;99.90;;;;;;5012106;28;20026;-45
2023/07/17 09:14:35;;;;;;;2.90;1.90;;;22.40;99.90;;;;;;5012023;28;20033;-41
2023/07/17 09:17:07;;;;;;;4.78;2.10;;;22.40;99.90;;;;;;5012004;28;20421;-45
2023/07/17 09:19:34;;;;;;;2.83;2.05;;;22.40;99.90;;;;;;5011532;28;20042;-42
2023/07/17 09:22:02;;;;;;;3.92;2.13;;;22.40;99.90;;;;;;5011785;28;20038;-43
2023/07/17 09:24:28;;;;;;;3.40;1.95;;;22.50;99.90;;;;;;5011802;28;20033;-42
2023/07/17 09:26:57;;;;;;;4.00;1.98;;;22.50;99.90;;;;;;5011655;28;20133;-41
2023/07/17 09:29:23;;;;;;;3.38;2.42;;;22.50;99.90;;;;;;5011518;28;20018;-42
2023/07/17 09:31:50;;;;;;;4.80;2.30;;;22.50;99.90;;;;;;5011775;28;20552;-44
2023/07/17 09:34:16;;;;;;;4.85;2.30;;;22.50;99.90;;;;;;5012162;28;20369;-46
2023/07/17 09:36:41;;;;;;;3.78;2.10;;;22.50;99.90;;;;;;5011597;28;20102;-44
2023/07/17 09:39:09;;;;;;;3.45;2.10;;;22.50;99.90;;;;;;5011272;28;20512;-41
2023/07/17 09:41:34;;;;;;;3.08;2.10;;;22.50;99.90;;;;;;5011586;28;20454;-45
2023/07/17 09:44:03;;;;;;;4.25;2.35;;;22.50;99.90;;;;;;5011546;28;20112;-41
2023/07/17 09:46:30;;;;;;;4.03;2.15;;;22.50;99.90;;;;;;5011553;28;20057;-45
2023/07/17 09:48:57;;;;;;;3.45;2.08;;;22.50;99.90;;;;;;5011081;28;20389;-42
2023/07/17 09:51:23;;;;;;;3.35;2.20;;;22.50;99.90;;;;;;5011427;28;20059;-41
2023/07/17 09:53:49;;;;;;;4.15;2.40;;;22.50;99.90;;;;;;5011510;28;20060;-46
2023/07/17 09:56:16;;;;;;;4.60;2.20;;;22.50;99.90;;;;;;5011475;28;20501;-43
2023/07/17 09:58:48;;;;;;;5.03;2.20;;;22.60;99.90;;;;;;5012676;28;20026;-44
2023/07/17 10:01:16;;;;;;;3.72;2.30;;;22.60;99.90;;;;;;5015496;28;20386;-42
2023/07/17 10:03:49;;;;;;;4.93;2.55;;;22.60;99.90;;;;;;5015455;28;20117;-45
2023/07/17 10:06:18;;;;;;;3.45;2.40;;;22.60;99.90;;;;;;5015461;28;20106;-45
2023/07/17 10:08:46;;;;;;;3.50;2.00;;;22.70;99.90;;;;;;5015183;28;20084;-48
2023/07/17 10:11:16;;;;;;;4.20;2.30;;;22.60;99.90;;;;;;5015288;28;20036;-42
2023/07/17 10:13:43;;;;;;;4.35;2.00;;;22.70;99.90;;;;;;5015357;28;20088;-42
2023/07/17 10:16:11;;;;;;;4.13;2.38;;;22.70;99.90;;;;;;5015262;28;20101;-41
2023/07/17 10:18:49;;;;;;;3.67;2.20;;;22.70;99.90;;;;;;5015086;28;20080;-42
2023/07/17 10:21:18;;;;;;;2.92;2.10;;;22.70;99.90;;;;;;5015447;28;20113;-42
2023/07/17 10:23:45;;;;;;;3.65;2.42;;;22.70;99.90;;;;;;5015139;28;20133;-42
2023/07/17 10:26:14;;;;;;;3.97;2.28;;;22.70;99.90;;;;;;5015022;28;20041;-42
2023/07/17 10:28:41;;;;;;;3.53;2.45;;;22.80;99.90;;;;;;5014727;28;20076;-41
2023/07/17 10:31:24;;;;;;;4.40;2.42;;;22.80;99.90;;;;;;5014946;28;20512;-40
2023/07/17 10:33:51;;;;;;;2.88;2.20;;;22.80;99.90;;;;;;5015084;28;20022;-40
2023/07/17 10:36:18;;;;;;;3.97;2.40;;;22.80;99.90;;;;;;5014842;28;20022;-41
2023/07/17 10:38:51;;;;;;;3.85;2.10;;;22.80;99.90;;;;;;5014657;28;20088;-42
2023/07/17 10:41:17;;;;;;;4.57;2.25;;;22.80;99.90;;;;;;5014713;28;20211;-43
2023/07/17 10:44:01;;;;;;;3.13;2.42;;;22.80;99.90;;;;;;5014691;28;20401;-44
2023/07/17 10:46:28;;;;;;;3.65;2.50;;;22.80;99.90;;;;;;5014752;28;20428;-41
2023/07/17 10:49:07;;;;;;;2.65;2.17;;;22.80;99.90;;;;;;5014484;28;20026;-41
2023/07/17 10:51:33;;;;;;;3.85;2.42;;;22.90;99.90;;;;;;5014560;28;20021;-42
2023/07/17 10:53:59;;;;;;;3.40;2.42;;;22.90;99.90;;;;;;5014793;28;20025;-41
2023/07/17 10:56:24;;;;;;;4.38;2.60;;;22.90;99.90;;;;;;5014483;28;20441;-43
2023/07/17 10:58:51;;;;;;;3.08;2.33;;;22.90;99.90;;;;;;5014222;28;20033;-41
2023/07/17 11:01:16;;;;;;;3.38;2.10;;;22.90;99.90;;;;;;5014397;28;20392;-41
2023/07/17 11:03:47;;;;;;;4.10;2.35;;;22.90;99.90;;;;;;5014328;28;20477;-40
2023/07/17 11:06:15;;;;;;;5.25;2.42;;;22.90;99.90;;;;;;5014743;28;20026;-41
2023/07/17 11:08:42;;;;;;;4.10;2.40;;;22.90;99.90;;;;;;5013889;28;20030;-40
2023/07/17 11:11:09;;;;;;;3.00;2.50;;;22.90;99.90;;;;;;5013901;28;20029;-41
2023/07/17 11:13:35;;;;;;;3.58;2.60;;;23.00;99.90;;;;;;5014137;28;20025;-41
2023/07/17 11:16:08;;;;;;;3.25;2.35;;;22.90;99.90;;;;;;5014195;28;20481;-43
2023/07/17 11:18:47;;;;;;;3.88;2.67;;;23.00;99.90;;;;;;5013829;28;20037;-42
2023/07/17 11:21:17;;;;;;;3.03;2.42;;;22.90;99.90;;;;;;5014188;28;20034;-41
2023/07/17 11:23:57;;;;;;;4.25;2.45;;;23.00;99.90;;;;;;5014013;28;20033;-41
2023/07/17 11:26:22;;;;;;;3.17;2.35;;;23.00;99.90;;;;;;5013996;28;20030;-41
2023/07/17 11:28:53;;;;;;;3.58;2.05;;;23.00;99.90;;;;;;5013611;28;20049;-42
2023/07/17 11:31:26;;;;;;;3.72;2.45;;;23.00;99.90;;;;;;5013813;28;20071;-42
2023/07/17 11:33:57;;;;;;;4.72;2.55;;;23.00;99.90;;;;;;5013877;28;20026;-45
2023/07/17 11:36:28;;;;;;;2.63;2.10;;;23.00;99.90;;;;;;5013865;28;20030;-41
2023/07/17 11:39:09;;;;;;;3.63;2.30;;;23.00;99.90;;;;;;5013595;28;20030;-40
2023/07/17 11:41:45;;;;;;;3.92;2.55;;;23.00;99.90;;;;;;5013631;28;20029;-43
2023/07/17 11:44:11;;;;;;;3.63;2.75;;;23.00;99.90;;;;;;5013552;28;20397;-43
2023/07/17 11:46:39;;;;;;;4.88;2.20;;;23.00;99.90;;;;;;5013578;28;20042;-41
2023/07/17 11:49:04;;;;;;;3.85;2.50;;;23.00;99.90;;;;;;5013481;28;20382;-41
2023/07/17 11:51:30;;;;;;;3.38;2.30;;;23.10;99.90;;;;;;5013523;28;20022;-43
2023/07/17 11:53:56;;;;;;;3.90;2.40;;;23.10;99.90;;;;;;5013298;28;20044;-44
2023/07/17 11:56:41;;;;;;;4.25;2.53;;;23.10;99.90;;;;;;5013392;28;20096;-41
2023/07/17 11:59:16;;;;;;;3.58;2.60;;;23.10;99.90;;;;;;5013067;28;20029;-43
2023/07/17 12:01:41;;;;;;;3.85;2.30;;;23.00;99.90;;;;;;5013686;28;20028;-43
2023/07/17 12:04:20;;;;;;;2.88;2.10;;;23.10;99.90;;;;;;5013131;28;20389;-41
2023/07/17 12:06:46;;;;;;;4.47;2.65;;;23.00;99.90;;;;;;5013123;28;20022;-41
2023/07/17 12:09:12;;;;;;;3.78;2.38;;;23.10;99.90;;;;;;5013065;28;20045;-43
2023/07/17 12:11:38;;;;;;;4.10;2.60;;;23.10;99.90;;;;;;5013120;28;20037;-42
2023/07/17 12:14:04;;;;;;;3.15;2.53;;;23.10;99.90;;;;;;5013062;28;20061;-45
2023/07/17 12:16:30;;;;;;;4.13;2.47;;;23.10;99.90;;;;;;5013031;28;20509;-42
2023/07/17 12:18:55;;;;;;;4.35;2.63;;;23.10;99.90;;;;;;5012560;28;20036;-41
2023/07/17 12:21:21;;;;;;;3.45;2.65;;;23.10;99.90;;;;;;5012015;28;20017;-42
2023/07/17 12:23:47;;;;;;;4.30;2.33;;;23.10;99.90;;;;;;4995293;28;20524;-45
2023/07/17 12:26:12;;;;;;;3.42;2.40;;;23.10;99.90;;;;;;5012802;28;20025;-44
2023/07/17 12:28:38;;;;;;;4.05;2.58;;;23.10;99.90;;;;;;5012898;28;20026;-41
2023/07/17 12:31:03;;;;;;;5.20;2.78;;;23.10;99.90;;;;;;5012571;28;20058;-43
2023/07/17 12:33:31;;;;;;;3.20;2.15;;;23.10;99.90;;;;;;5012694;28;20030;-41
2023/07/17 12:35:57;;;;;;;4.07;2.60;;;23.10;99.90;;;;;;5012699;28;20531;-41
2023/07/17 12:38:23;;;;;;;4.43;2.42;;;23.10;99.90;;;;;;5012750;28;20037;-42
2023/07/17 12:40:49;;;;;;;4.88;2.72;;;23.10;99.90;;;;;;5012366;28;20026;-43
2023/07/17 12:43:15;;;;;;;3.90;2.58;;;23.10;99.90;;;;;;5012544;28;20030;-42
2023/07/17 12:45:41;;;;;;;5.22;2.55;;;23.10;99.90;;;;;;5012545;28;20516;-41